createdAt,value
2019-03-08T00:00:25.196Z,51.4
2019-03-08T00:01:34.526Z,52.2
2019-03-08T00:02:43.860Z,52
2019-03-08T00:03:53.186Z,52.2
2019-03-08T00:05:02.571Z,52.5
2019-03-08T00:06:11.872Z,51.8
2019-03-08T00:07:21.214Z,52.7
2019-03-08T00:08:30.564Z,52.9
2019-03-08T00:09:40.178Z,54.7
2019-03-08T00:10:49.461Z,54.7
2019-03-08T00:11:59.770Z,55.9
2019-03-08T00:13:08.142Z,56.9
2019-03-08T00:14:17.462Z,55.9
2019-03-08T00:15:26.785Z,55.6
2019-03-08T00:16:36.191Z,55.8
2019-03-08T00:17:45.255Z,54.9
2019-03-08T00:18:54.662Z,54.5
2019-03-08T00:20:03.914Z,56
2019-03-08T00:21:13.253Z,56.9
2019-03-08T00:22:22.604Z,56.2
2019-03-08T00:23:31.919Z,57.1
2019-03-08T00:24:41.329Z,56.9
2019-03-08T00:25:50.654Z,57.1
2019-03-08T00:26:59.923Z,57.5
2019-03-08T00:28:09.332Z,57.5
2019-03-08T00:29:18.833Z,57.5
2019-03-08T00:30:27.951Z,58.4
2019-03-08T00:31:37.268Z,58.4
2019-03-08T00:32:46.607Z,57
2019-03-08T00:33:55.944Z,58.3
2019-03-08T00:35:05.273Z,59.2
2019-03-08T00:36:14.609Z,59.4
2019-03-08T00:37:23.950Z,59.1
2019-03-08T00:38:33.314Z,58.6
2019-03-08T00:39:42.704Z,59
2019-03-08T00:40:51.924Z,58.9
2019-03-08T00:42:01.373Z,59.2
2019-03-08T00:43:10.586Z,59.6
2019-03-08T00:44:19.921Z,59.7
2019-03-08T00:45:29.246Z,59.4
2019-03-08T00:46:38.588Z,59.2
2019-03-08T00:47:47.960Z,60
2019-03-08T00:48:57.239Z,58.9
2019-03-08T00:50:06.618Z,59.3
2019-03-08T00:51:15.914Z,59.5
2019-03-08T00:52:25.388Z,60.2
2019-03-08T00:53:34.627Z,61
2019-03-08T00:54:43.884Z,62.2
2019-03-08T00:55:53.232Z,61.4
2019-03-08T00:57:02.612Z,61.5
2019-03-08T00:58:11.932Z,61.2
2019-03-08T00:59:21.282Z,62.2
2019-03-08T01:00:30.543Z,62.4
2019-03-08T01:01:39.877Z,63
2019-03-08T01:02:49.332Z,63.6
2019-03-08T01:03:58.529Z,64.2
2019-03-08T01:05:07.867Z,65.5
2019-03-08T01:06:17.197Z,65.1
2019-03-08T01:07:26.570Z,65.3
2019-03-08T01:08:35.843Z,66.8
2019-03-08T01:09:45.182Z,67.5
2019-03-08T01:10:54.498Z,67.6
2019-03-08T01:12:03.832Z,67.5
2019-03-08T01:13:13.173Z,68.6
2019-03-08T01:14:22.512Z,68.4
2019-03-08T01:15:31.857Z,68.9
2019-03-08T01:16:41.156Z,69.4
2019-03-08T01:17:50.460Z,70.1
2019-03-08T01:18:59.783Z,70.5
2019-03-08T01:20:09.235Z,71.2
2019-03-08T01:21:18.465Z,71.5
2019-03-08T01:22:27.752Z,72.1
2019-03-08T01:23:37.154Z,69.8
2019-03-08T01:24:46.459Z,69.8
2019-03-08T01:25:55.745Z,70.5
2019-03-08T01:27:05.069Z,71
2019-03-08T01:28:14.376Z,70.7
2019-03-08T01:29:23.718Z,71.6
2019-03-08T01:30:33.020Z,72.7
2019-03-08T01:31:42.433Z,72.4
2019-03-08T01:32:51.678Z,71.3
2019-03-08T01:34:00.995Z,71.3
2019-03-08T01:35:10.415Z,72.1
2019-03-08T01:36:19.638Z,72.7
2019-03-08T01:37:28.971Z,72.9
2019-03-08T01:38:38.334Z,73.3
2019-03-08T01:39:47.673Z,72.8
2019-03-08T01:40:56.926Z,72.7
2019-03-08T01:42:06.251Z,72.8
2019-03-08T01:43:15.566Z,70.3
2019-03-08T01:44:24.886Z,70.3
2019-03-08T01:45:34.236Z,71.6
2019-03-08T01:46:43.546Z,71
2019-03-08T01:47:52.905Z,71.1
2019-03-08T01:49:02.187Z,69.8
2019-03-08T01:50:11.606Z,70.7
2019-03-08T01:51:20.886Z,71.2
2019-03-08T01:52:30.421Z,69.6
2019-03-08T01:53:39.723Z,70.1
2019-03-08T01:54:49.054Z,71
2019-03-08T01:55:58.334Z,69.8
2019-03-08T01:57:07.699Z,71.7
2019-03-08T01:58:16.917Z,71
2019-03-08T01:59:26.193Z,70.2
2019-03-08T02:00:35.434Z,71.1
2019-03-08T02:01:44.870Z,71.7
2019-03-08T02:02:54.101Z,71.9
2019-03-08T02:04:03.423Z,71.8
2019-03-08T02:05:12.717Z,72.7
2019-03-08T02:06:22.027Z,71.5
2019-03-08T02:07:33.341Z,69.6
2019-03-08T02:08:40.681Z,71.1
2019-03-08T02:09:49.990Z,72.2
2019-03-08T02:10:59.372Z,72.1
2019-03-08T02:12:08.643Z,73
2019-03-08T02:13:17.973Z,73.7
2019-03-08T02:14:27.277Z,72.3
2019-03-08T02:15:36.629Z,72.5
2019-03-08T02:16:45.950Z,69.7
2019-03-08T02:17:55.352Z,71.3
2019-03-08T02:19:04.564Z,72.7
2019-03-08T02:20:13.902Z,70.5
2019-03-08T02:21:23.323Z,71
2019-03-08T02:22:32.584Z,71.7
2019-03-08T02:23:41.855Z,72.7
2019-03-08T02:24:51.181Z,72.6
2019-03-08T02:26:00.515Z,72.7
2019-03-08T02:27:09.854Z,72.5
2019-03-08T02:28:19.260Z,71.4
2019-03-08T02:29:28.582Z,71.9
2019-03-08T02:30:37.795Z,72.3
2019-03-08T02:31:47.273Z,71.9
2019-03-08T02:32:56.489Z,70.3
2019-03-08T02:34:05.777Z,72.5
2019-03-08T02:35:15.101Z,72.7
2019-03-08T02:36:24.415Z,71
2019-03-08T02:37:33.707Z,71.3
2019-03-08T02:38:43.031Z,72.7
2019-03-08T02:39:52.350Z,72.7
2019-03-08T02:49:07.078Z,70.8
2019-03-08T02:50:16.321Z,70.5
2019-03-08T02:51:25.562Z,71.4
2019-03-08T02:52:34.899Z,71.4
2019-03-08T02:53:44.194Z,71.9
2019-03-08T02:54:53.551Z,69.8
2019-03-08T02:56:02.875Z,70.1
2019-03-08T02:57:12.182Z,70.6
2019-03-08T02:58:21.521Z,70.6
2019-03-08T02:59:30.943Z,69.3
2019-03-08T03:00:40.131Z,68.4
2019-03-08T03:01:49.445Z,69.5
2019-03-08T03:02:58.752Z,70.8
2019-03-08T03:04:08.086Z,68.4
2019-03-08T03:05:17.469Z,69.5
2019-03-08T03:06:26.770Z,68.9
2019-03-08T03:07:36.084Z,68.5
2019-03-08T03:08:45.359Z,65.5
2019-03-08T03:09:54.672Z,67.5
2019-03-08T03:11:04.015Z,67.4
2019-03-08T03:12:13.364Z,65.5
2019-03-08T03:13:22.667Z,67.5
2019-03-08T03:14:31.968Z,67.4
2019-03-08T03:15:41.287Z,65
2019-03-08T03:16:50.621Z,64.5
2019-03-08T03:17:59.972Z,64.5
2019-03-08T03:19:09.258Z,63.7
2019-03-08T03:20:18.724Z,62.2
2019-03-08T03:21:27.904Z,62.2
2019-03-08T03:22:37.235Z,63.2
2019-03-08T03:23:46.548Z,62.3
2019-03-08T03:24:55.879Z,62.2
2019-03-08T03:26:05.199Z,62.2
2019-03-08T03:27:14.537Z,63.4
2019-03-08T03:28:23.866Z,62.4
2019-03-08T03:29:33.199Z,62.2
2019-03-08T03:30:42.955Z,62.2
2019-03-08T03:31:52.121Z,60.9
2019-03-08T03:33:01.486Z,60.5
2019-03-08T03:34:10.699Z,61.9
2019-03-08T03:35:20.011Z,62.2
2019-03-08T03:36:29.375Z,62.2
2019-03-08T03:37:38.694Z,62.4
2019-03-08T03:38:47.962Z,62.2
2019-03-08T03:39:57.225Z,61.6
2019-03-08T03:41:06.484Z,62.2
2019-03-08T03:42:15.881Z,62.2
2019-03-08T03:43:25.107Z,62.2
2019-03-08T03:44:34.541Z,62.2
2019-03-08T03:45:43.745Z,62.2
2019-03-08T03:46:53.071Z,62.2
2019-03-08T03:48:02.430Z,61
2019-03-08T03:49:11.737Z,62.2
2019-03-08T03:50:21.053Z,62.7
2019-03-08T03:51:30.448Z,61.2
2019-03-08T03:52:39.726Z,61.4
2019-03-08T03:53:49.037Z,61.3
2019-03-08T03:54:58.398Z,62.1
2019-03-08T03:56:07.689Z,62.2
2019-03-08T03:57:17.016Z,62.2
2019-03-08T03:58:26.349Z,59.6
2019-03-08T03:59:35.664Z,56.8
2019-03-08T04:00:45.020Z,57.2
2019-03-08T04:01:54.353Z,55.4
2019-03-08T04:03:03.655Z,55.9
2019-03-08T04:04:13.076Z,56.8
2019-03-08T04:05:22.328Z,56.1
2019-03-08T04:06:31.645Z,55.6
2019-03-08T04:07:40.985Z,56.5
2019-03-08T04:08:50.285Z,55
2019-03-08T04:09:59.614Z,55.5
2019-03-08T04:11:09.056Z,54.6
2019-03-08T04:12:18.318Z,53.2
2019-03-08T04:13:27.703Z,53.9
2019-03-08T04:14:37.007Z,53.4
2019-03-08T04:15:46.333Z,52
2019-03-08T04:16:55.609Z,53.1
2019-03-08T04:18:04.936Z,52.7
2019-03-08T04:19:14.258Z,53.3
2019-03-08T04:20:23.604Z,51.2
2019-03-08T04:21:32.994Z,53.3
2019-03-08T04:22:42.314Z,51.9
2019-03-08T04:23:51.603Z,51.2
2019-03-08T04:25:00.934Z,51.3
2019-03-08T04:26:10.256Z,51.2
2019-03-08T04:27:19.574Z,50.7
2019-03-08T04:28:30.484Z,51.8
2019-03-08T04:29:39.789Z,51.8
2019-03-08T04:30:49.137Z,50.8
2019-03-08T04:31:58.462Z,51.3
2019-03-08T04:33:07.801Z,50.1
2019-03-08T04:34:17.231Z,48.6
2019-03-08T04:35:26.467Z,49.6
2019-03-08T04:36:35.788Z,49.8
2019-03-08T04:37:45.134Z,49
2019-03-08T04:38:54.474Z,49.3
2019-03-08T04:40:03.810Z,49.8
2019-03-08T04:41:13.142Z,48.4
2019-03-08T04:42:22.479Z,47.2
2019-03-08T04:43:31.823Z,47.6
2019-03-08T04:44:41.270Z,48.5
2019-03-08T04:45:50.496Z,48.2
2019-03-08T04:46:59.847Z,48.2
2019-03-08T04:48:09.293Z,47.2
2019-03-08T04:49:18.520Z,48.1
2019-03-08T04:50:27.912Z,48.2
2019-03-08T04:51:37.367Z,47.7
2019-03-08T04:52:46.597Z,48
2019-03-08T04:53:55.892Z,46.8
2019-03-08T04:55:05.210Z,46.9
2019-03-08T04:56:14.536Z,46.7
2019-03-08T04:57:23.941Z,48.1
2019-03-08T04:58:33.288Z,47.2
2019-03-08T04:59:42.574Z,45.8
2019-03-08T05:00:51.904Z,47.4
2019-03-08T05:02:01.307Z,47
2019-03-08T05:03:10.583Z,47.4
2019-03-08T05:04:19.970Z,47.6
2019-03-08T05:05:29.269Z,48.3
2019-03-08T05:06:38.736Z,47.5
2019-03-08T05:07:48.059Z,47.6
2019-03-08T05:08:57.328Z,47.4
2019-03-08T05:10:06.658Z,48
2019-03-08T05:11:15.983Z,47.5
2019-03-08T05:12:25.329Z,48.1
2019-03-08T05:13:34.672Z,47.3
2019-03-08T05:14:44.315Z,48.1
2019-03-08T05:15:53.529Z,47.9
2019-03-08T05:17:02.907Z,48.3
2019-03-08T05:18:12.261Z,47.6
2019-03-08T05:19:21.474Z,47.3
2019-03-08T05:20:30.917Z,47.6
2019-03-08T05:21:40.242Z,47.7
2019-03-08T05:22:49.513Z,47.7
2019-03-08T05:23:58.781Z,47.5
2019-03-08T05:25:08.103Z,47.9
2019-03-08T05:26:17.464Z,47.9
2019-03-08T05:27:26.773Z,47.6
2019-03-08T05:28:36.181Z,47.1
2019-03-08T05:29:45.472Z,47
2019-03-08T05:30:54.830Z,47.4
2019-03-08T05:32:04.153Z,47.2
2019-03-08T05:33:13.498Z,47.2
2019-03-08T05:34:22.843Z,47
2019-03-08T05:35:32.335Z,46.8
2019-03-08T05:36:41.798Z,47.3
2019-03-08T05:37:50.912Z,47.4
2019-03-08T05:39:00.232Z,46.7
2019-03-08T05:40:09.563Z,46.8
2019-03-08T05:41:18.902Z,47.6
2019-03-08T05:42:28.240Z,47.2
2019-03-08T05:43:37.608Z,47.2
2019-03-08T05:44:46.922Z,46.7
2019-03-08T05:45:56.367Z,46.5
2019-03-08T05:47:05.629Z,46.3
2019-03-08T05:48:14.969Z,45.8
2019-03-08T05:49:24.369Z,46.4
2019-03-08T05:50:33.642Z,47
2019-03-08T05:51:43.071Z,47.2
2019-03-08T05:52:52.332Z,45.9
2019-03-08T05:54:01.684Z,46.2
2019-03-08T05:55:11.038Z,45.8
2019-03-08T05:56:20.364Z,45.9
2019-03-08T05:57:29.711Z,46.6
2019-03-08T05:58:39.060Z,46.7
2019-03-08T05:59:48.408Z,47.1
2019-03-08T06:00:57.756Z,47.1
2019-03-08T06:02:07.101Z,47.3
2019-03-08T06:03:16.557Z,47
2019-03-08T06:04:25.798Z,47.3
2019-03-08T06:05:35.201Z,46.2
2019-03-08T06:06:44.488Z,45.9
2019-03-08T06:07:53.842Z,47.5
2019-03-08T06:09:03.201Z,46.9
2019-03-08T06:10:12.543Z,46.9
2019-03-08T06:11:21.894Z,47.1
2019-03-08T06:12:31.331Z,46.6
2019-03-08T06:13:40.593Z,47
2019-03-08T06:14:50.058Z,46.7
2019-03-08T06:15:59.284Z,47.4
2019-03-08T06:17:08.637Z,47.5
2019-03-08T06:18:17.984Z,47.3
2019-03-08T06:19:27.358Z,47.5
2019-03-08T06:20:36.683Z,48
2019-03-08T06:21:46.070Z,48.5
2019-03-08T06:22:55.398Z,48.1
2019-03-08T06:24:04.731Z,47.9
2019-03-08T06:25:14.091Z,48.6
2019-03-08T06:26:23.467Z,48.3
2019-03-08T06:27:32.985Z,48.2
2019-03-08T06:28:42.301Z,48.4
2019-03-08T06:29:51.494Z,48.4
2019-03-08T06:31:00.834Z,48.9
2019-03-08T06:32:10.251Z,48.5
2019-03-08T06:33:19.550Z,49.2
2019-03-08T06:34:28.896Z,49.8
2019-03-08T06:35:38.242Z,49.7
2019-03-08T06:36:47.687Z,50
2019-03-08T06:37:56.945Z,50.8
2019-03-08T06:39:06.311Z,51.5
2019-03-08T06:40:15.666Z,50.7
2019-03-08T06:41:25.061Z,51.7
2019-03-08T06:42:34.358Z,53
2019-03-08T06:43:44.069Z,53.3
2019-03-08T06:44:53.092Z,53.6
2019-03-08T06:46:02.525Z,54.7
2019-03-08T06:47:11.795Z,54.9
2019-03-08T06:48:21.161Z,53.5
2019-03-08T06:49:30.453Z,56.7
2019-03-08T06:50:39.814Z,57.2
2019-03-08T06:51:49.155Z,57.9
2019-03-08T06:52:58.521Z,57.4
2019-03-08T06:54:07.957Z,57.2
2019-03-08T06:55:17.205Z,57.6
2019-03-08T06:56:26.606Z,59.3
2019-03-08T06:57:36.018Z,59.9
2019-03-08T06:58:45.246Z,59.6
2019-03-08T06:59:54.656Z,58.7
2019-03-08T07:01:03.964Z,59.2
2019-03-08T07:02:13.323Z,58
2019-03-08T07:03:22.652Z,58.3
2019-03-08T07:04:32.029Z,57.6
2019-03-08T07:05:41.494Z,57.3
2019-03-08T07:06:50.706Z,57.3
2019-03-08T07:08:00.134Z,56.5
2019-03-08T07:09:09.456Z,56.4
2019-03-08T07:10:18.755Z,56.5
2019-03-08T07:11:28.161Z,56.7
2019-03-08T07:12:37.476Z,57.4
2019-03-08T07:13:46.825Z,57.4
2019-03-08T07:14:56.197Z,56.9
2019-03-08T07:16:14.285Z,56.6
2019-03-08T07:17:14.882Z,56
2019-03-08T07:18:24.255Z,55.9
2019-03-08T07:19:41.753Z,55.7
2019-03-08T07:20:42.943Z,55.9
2019-03-08T07:21:52.292Z,55.6
2019-03-08T07:23:01.651Z,56.3
2019-03-08T07:24:11.024Z,55.9
2019-03-08T07:25:20.370Z,56.5
2019-03-08T07:26:29.720Z,56.3
2019-03-08T07:27:39.361Z,57.5
2019-03-08T07:28:48.704Z,57.5
2019-03-08T07:29:58.082Z,57.5
2019-03-08T07:31:07.420Z,57
2019-03-08T07:32:17.830Z,56.8
2019-03-08T07:33:26.113Z,56.8
2019-03-08T07:34:35.520Z,56.8
2019-03-08T07:35:45.932Z,56.4
2019-03-08T07:36:55.449Z,57
2019-03-08T07:38:04.612Z,57.5
2019-03-08T07:39:13.991Z,57.1
2019-03-08T07:40:23.388Z,57.5
2019-03-08T07:41:32.713Z,57.5
2019-03-08T07:42:42.084Z,57.9
2019-03-08T07:43:51.469Z,57.5
2019-03-08T07:45:00.836Z,58.9
2019-03-08T07:46:10.157Z,57.8
2019-03-08T07:47:19.506Z,60.1
2019-03-08T07:48:28.890Z,61.1
2019-03-08T07:49:38.260Z,60.8
2019-03-08T07:50:47.636Z,62.9
2019-03-08T07:51:56.995Z,61.1
2019-03-08T07:53:06.368Z,60.9
2019-03-08T07:54:15.688Z,60.5
2019-03-08T07:55:25.044Z,60.4
2019-03-08T07:56:34.469Z,60.2
2019-03-08T07:57:43.804Z,61.5
2019-03-08T07:58:53.155Z,60.2
2019-03-08T08:00:02.592Z,60.6
2019-03-08T08:01:11.896Z,60
2019-03-08T08:02:21.245Z,60
2019-03-08T08:03:30.619Z,60.1
2019-03-08T08:04:40.014Z,60.2
2019-03-08T08:05:58.475Z,60
2019-03-08T08:06:58.706Z,59.9
2019-03-08T08:08:08.073Z,60
2019-03-08T08:09:17.471Z,60.3
2019-03-08T08:10:26.823Z,60.5
2019-03-08T08:11:36.180Z,61
2019-03-08T08:12:45.579Z,60.4
2019-03-08T08:13:54.891Z,60.6
2019-03-08T08:15:04.255Z,60.8
2019-03-08T08:16:13.659Z,60.1
2019-03-08T08:17:22.999Z,61
2019-03-08T08:18:32.484Z,60.1
2019-03-08T08:19:41.751Z,60
2019-03-08T08:20:51.103Z,59.8
2019-03-08T08:22:00.497Z,59.9
2019-03-08T08:23:09.898Z,60.3
2019-03-08T08:24:19.226Z,59.9
2019-03-08T08:25:37.102Z,60.3
2019-03-08T08:26:38.050Z,60.3
2019-03-08T08:27:47.426Z,60.9
2019-03-08T08:28:56.739Z,61.2
2019-03-08T08:30:06.179Z,61.7
2019-03-08T08:31:15.495Z,62.1
2019-03-08T08:32:24.867Z,62.3
2019-03-08T08:33:34.310Z,63.1
2019-03-08T08:34:43.646Z,63.6
2019-03-08T08:35:53.011Z,64.3
2019-03-08T08:39:05.589Z,65.1
2019-03-08T08:40:30.515Z,65.9
2019-03-08T08:41:39.884Z,65.8
2019-03-08T08:42:49.256Z,66
2019-03-08T08:43:58.622Z,65.9
2019-03-08T08:45:08.012Z,66.6
2019-03-08T08:46:17.439Z,66.2
2019-03-08T08:47:26.762Z,66.5
2019-03-08T08:48:36.140Z,66.2
2019-03-08T08:49:55.743Z,65.8
2019-03-08T08:50:54.868Z,66.4
2019-03-08T08:52:04.236Z,66.3
2019-03-08T08:53:13.600Z,65.6
2019-03-08T08:54:22.958Z,66.6
2019-03-08T08:55:32.361Z,65.3
2019-03-08T08:56:41.689Z,65.9
2019-03-08T08:57:51.099Z,65.7
2019-03-08T08:59:00.755Z,65.9
2019-03-08T09:00:10.070Z,66.1
2019-03-08T09:01:19.443Z,66.3
2019-03-08T09:02:28.767Z,66.6
2019-03-08T09:03:38.213Z,66.1
2019-03-08T09:04:47.494Z,65.7
2019-03-08T09:05:56.869Z,65.9
2019-03-08T09:07:06.154Z,66.1
2019-03-08T09:08:15.413Z,66.8
2019-03-08T09:09:24.737Z,65.8
2019-03-08T09:10:34.337Z,64.6
2019-03-08T09:11:52.382Z,65.7
2019-03-08T09:12:52.852Z,65.6
2019-03-08T09:14:02.345Z,66.3
2019-03-08T09:15:11.681Z,65.9
2019-03-08T09:16:20.982Z,67.4
2019-03-08T09:17:30.365Z,67.5
2019-03-08T09:18:39.740Z,66.9
2019-03-08T09:19:49.149Z,66.7
2019-03-08T09:20:58.518Z,66
2019-03-08T09:22:07.889Z,67.4
2019-03-08T09:23:17.377Z,71.8
2019-03-08T09:24:26.635Z,72.7
2019-03-08T09:25:36.166Z,72.8
2019-03-08T09:26:45.475Z,75.1
2019-03-08T09:27:54.796Z,77.1
2019-03-08T09:29:04.138Z,83.6
2019-03-08T09:30:13.545Z,92.7
2019-03-08T09:31:25.206Z,93.7
2019-03-08T09:32:32.450Z,93.2
2019-03-08T09:33:41.820Z,93.8
2019-03-08T09:34:51.074Z,94.7
2019-03-08T09:36:00.399Z,95.9
2019-03-08T09:37:09.745Z,94.4
2019-03-08T09:38:19.176Z,99.9
2019-03-08T09:39:28.452Z,99.9
2019-03-08T09:40:37.861Z,99.5
2019-03-08T09:41:47.184Z,99.9
2019-03-08T09:42:56.545Z,98.5
2019-03-08T09:44:05.889Z,99.9
2019-03-08T09:45:15.293Z,97.7
2019-03-08T09:46:24.640Z,96.7
2019-03-08T09:47:33.968Z,97.7
2019-03-08T09:48:49.047Z,96.4
2019-03-08T09:49:52.681Z,97
2019-03-08T09:51:02.087Z,99.9
2019-03-08T09:52:11.437Z,98.7
2019-03-08T09:53:20.828Z,98.7
2019-03-08T09:54:30.101Z,99.9
2019-03-08T09:55:39.461Z,99.9
2019-03-08T09:56:48.802Z,99.9
2019-03-08T09:57:58.184Z,99.9
2019-03-08T09:59:07.550Z,99.9
2019-03-08T10:00:16.872Z,99.9
2019-03-08T10:01:26.228Z,99.9
2019-03-08T10:02:35.574Z,99.9
2019-03-08T10:03:46.755Z,99.9
2019-03-08T10:04:54.372Z,99.9
2019-03-08T10:06:03.623Z,99.9
2019-03-08T10:07:12.961Z,99.9
2019-03-08T10:08:22.297Z,99.9
2019-03-08T10:09:31.712Z,99.9
2019-03-08T10:10:41.007Z,99.9
2019-03-08T10:11:50.335Z,99.9
2019-03-08T10:12:59.689Z,99.9
2019-03-08T10:14:09.065Z,99.9
2019-03-08T10:15:18.324Z,99.9
2019-03-08T10:16:27.670Z,99.9
2019-03-08T10:17:37.013Z,99.9
2019-03-08T10:18:46.415Z,99.9
2019-03-08T10:19:55.738Z,99.9
2019-03-08T10:21:05.020Z,99.9
2019-03-08T10:22:14.366Z,99.9
2019-03-08T10:23:23.677Z,99.9
2019-03-08T10:24:33.042Z,99.9
2019-03-08T10:25:42.435Z,99.9
2019-03-08T10:26:51.706Z,99.9
2019-03-08T10:28:01.040Z,99.9
2019-03-08T10:29:10.385Z,99.9
2019-03-08T10:30:19.714Z,99.9
2019-03-08T10:31:29.051Z,99.9
2019-03-08T10:32:38.413Z,99.9
2019-03-08T10:33:47.747Z,99.9
2019-03-08T10:34:57.552Z,99.9
2019-03-08T10:36:06.676Z,99.9
2019-03-08T10:37:15.829Z,99
2019-03-08T10:38:25.240Z,98.8
2019-03-08T10:39:35.306Z,98.2
2019-03-08T10:40:44.127Z,97.1
2019-03-08T10:41:53.521Z,98
2019-03-08T10:43:03.039Z,97.4
2019-03-08T10:44:14.807Z,97.1
2019-03-08T10:45:21.606Z,97.3
2019-03-08T10:46:30.907Z,96.9
2019-03-08T10:47:40.147Z,96.2
2019-03-08T10:48:49.539Z,96
2019-03-08T10:49:58.776Z,97
2019-03-08T10:51:08.153Z,96.4
2019-03-08T10:52:18.255Z,96.7
2019-03-08T10:53:26.900Z,94.8
2019-03-08T10:54:36.344Z,95.3
2019-03-08T10:55:45.682Z,99.9
2019-03-08T10:56:55.037Z,99.9
2019-03-08T10:58:04.459Z,99.9
2019-03-08T10:59:13.769Z,99.9
2019-03-08T11:00:23.337Z,99.9
2019-03-08T11:01:32.629Z,99.9
2019-03-08T11:02:41.875Z,99.9
2019-03-08T11:03:51.548Z,99.9
2019-03-08T11:05:00.617Z,99.9
2019-03-08T11:06:09.945Z,99.9
2019-03-08T11:07:19.308Z,99.9
2019-03-08T11:08:30.251Z,99.9
2019-03-08T11:09:38.119Z,99.9
2019-03-08T11:10:48.556Z,99.9
2019-03-08T11:11:56.699Z,99.9
2019-03-08T11:13:06.038Z,99.9
2019-03-08T11:14:15.384Z,99.9
2019-03-08T11:15:25.098Z,99.9
2019-03-08T11:16:34.080Z,99.9
2019-03-08T11:17:51.162Z,99.9
2019-03-08T11:18:52.837Z,99.9
2019-03-08T11:20:02.064Z,99.9
2019-03-08T11:21:11.390Z,99.9
2019-03-08T11:22:20.720Z,99.9
2019-03-08T11:23:30.176Z,99.9
2019-03-08T11:24:39.440Z,99.9
2019-03-08T11:27:05.379Z,99.9
2019-03-08T11:28:07.383Z,99.9
2019-03-08T11:29:16.801Z,99.9
2019-03-08T11:30:26.036Z,99.9
2019-03-08T11:31:35.393Z,99.9
2019-03-08T11:32:46.463Z,99.9
2019-03-08T11:33:54.022Z,99.9
2019-03-08T11:35:03.366Z,99.9
2019-03-08T11:36:12.666Z,99.9
2019-03-08T11:37:22.224Z,99.9
2019-03-08T11:38:31.395Z,99.9
2019-03-08T11:39:40.692Z,99.9
2019-03-08T11:40:49.989Z,99.9
2019-03-08T11:41:59.355Z,99.9
2019-03-08T11:43:08.744Z,99.9
2019-03-08T11:44:17.971Z,99.9
2019-03-08T11:45:27.392Z,99.9
2019-03-08T11:46:36.667Z,99.9
2019-03-08T11:47:46.006Z,99.9
2019-03-08T11:48:55.329Z,99.9
2019-03-08T11:50:04.690Z,99.9
2019-03-08T11:51:14.006Z,99.9
2019-03-08T11:52:23.347Z,99.9
2019-03-08T11:53:32.838Z,99.9
2019-03-08T11:54:42.186Z,99.9
2019-03-08T11:55:51.411Z,97.4
2019-03-08T11:57:02.129Z,95.8
2019-03-08T11:58:10.124Z,94
2019-03-08T11:59:19.494Z,91.8
2019-03-08T12:00:28.870Z,93.5
2019-03-08T12:01:38.235Z,90.8
2019-03-08T12:02:47.635Z,87.9
2019-03-08T12:03:57.027Z,77.1
2019-03-08T12:05:06.396Z,74.1
2019-03-08T12:06:15.850Z,77.1
2019-03-08T12:07:25.241Z,78.6
2019-03-08T12:08:34.616Z,74.6
2019-03-08T12:09:44.482Z,65.8
2019-03-08T12:10:53.457Z,69.1
2019-03-08T12:12:02.887Z,74.4
2019-03-08T12:13:12.637Z,70.7
2019-03-08T12:14:22.070Z,74.5
2019-03-08T12:15:31.533Z,69.6
2019-03-08T12:16:40.975Z,74.4
2019-03-08T12:17:50.332Z,80.6
2019-03-08T12:18:59.746Z,76
2019-03-08T12:20:09.170Z,74.6
2019-03-08T12:21:18.465Z,72.3
2019-03-08T12:22:27.982Z,75.8
2019-03-08T12:23:37.350Z,75.7
2019-03-08T12:24:46.803Z,79.3
2019-03-08T12:25:56.281Z,83.2
2019-03-08T12:27:05.726Z,71.8
2019-03-08T12:28:15.192Z,81.1
2019-03-08T12:29:24.663Z,80.1
2019-03-08T12:30:34.153Z,81
2019-03-08T12:31:43.605Z,84.6
2019-03-08T12:32:53.065Z,81.3
2019-03-08T12:34:02.632Z,79.9
2019-03-08T12:35:11.989Z,75.8
2019-03-08T12:36:21.471Z,77.6
2019-03-08T12:37:30.895Z,74.7
2019-03-08T12:38:40.391Z,68.8
2019-03-08T12:39:49.801Z,76.2
2019-03-08T12:40:59.261Z,73.2
2019-03-08T12:42:08.688Z,74.6
2019-03-08T12:43:18.163Z,83.1
2019-03-08T12:44:27.638Z,91.9
2019-03-08T12:45:37.001Z,94
2019-03-08T12:46:46.450Z,96.6
2019-03-08T12:47:56.019Z,94
2019-03-08T12:49:05.569Z,93.3
2019-03-08T12:50:14.740Z,88.7
2019-03-08T12:51:24.233Z,83.9
2019-03-08T12:52:33.709Z,84.2
2019-03-08T12:53:43.164Z,81.4
2019-03-08T12:54:52.557Z,79.8
2019-03-08T12:56:01.985Z,80.3
2019-03-08T12:57:11.415Z,75.1
2019-03-08T12:58:20.867Z,72
2019-03-08T12:59:30.309Z,72.9
2019-03-08T13:00:39.787Z,65.9
2019-03-08T13:01:49.246Z,66.4
2019-03-08T13:02:58.702Z,62.1
2019-03-08T13:04:08.196Z,56.5
2019-03-08T13:05:17.700Z,57
2019-03-08T13:06:27.153Z,53.3
2019-03-08T13:07:36.663Z,51.9
2019-03-08T13:08:46.202Z,53
2019-03-08T13:09:55.680Z,51.8
2019-03-08T13:11:05.230Z,58.6
2019-03-08T13:12:14.720Z,47.8
2019-03-08T13:13:24.193Z,49.5
2019-03-08T13:14:33.719Z,47.5
2019-03-08T13:15:43.231Z,47.4
2019-03-08T13:16:52.748Z,47.3
2019-03-08T13:18:02.327Z,47.3
2019-03-08T13:19:11.900Z,42.6
2019-03-08T13:20:21.327Z,50.7
2019-03-08T13:21:30.834Z,51.8
2019-03-08T13:22:40.469Z,56.7
2019-03-08T13:23:49.913Z,51
2019-03-08T13:24:59.415Z,51.8
2019-03-08T13:26:08.849Z,54.2
2019-03-08T13:27:18.549Z,49.2
2019-03-08T13:28:27.875Z,50.2
2019-03-08T13:29:37.339Z,50.7
2019-03-08T13:30:46.873Z,50.8
2019-03-08T13:31:56.405Z,48.2
2019-03-08T13:33:05.917Z,44.9
2019-03-08T13:34:15.775Z,46.9
2019-03-08T13:35:25.173Z,47.3
2019-03-08T13:36:34.758Z,42.4
2019-03-08T13:37:44.311Z,44.1
2019-03-08T13:38:53.847Z,43.2
2019-03-08T13:40:03.317Z,42.1
2019-03-08T13:41:12.852Z,42.7
2019-03-08T13:42:22.360Z,43.5
2019-03-08T13:43:31.820Z,40.1
2019-03-08T13:44:41.523Z,35.8
2019-03-08T13:45:51.074Z,35.3
2019-03-08T13:47:00.539Z,32
2019-03-08T13:48:10.126Z,32.4
2019-03-08T13:49:20.208Z,34.2
2019-03-08T13:50:29.303Z,29.5
2019-03-08T13:51:38.866Z,28.5
2019-03-08T13:52:48.477Z,29.3
2019-03-08T13:53:58.075Z,26.5
2019-03-08T13:55:09.904Z,27.7
2019-03-08T13:56:17.221Z,25.9
2019-03-08T13:57:26.866Z,26.3
2019-03-08T13:58:36.477Z,25.8
2019-03-08T13:59:45.979Z,26.7
2019-03-08T14:00:55.575Z,27.1
2019-03-08T14:02:05.148Z,27.4
2019-03-08T14:03:14.739Z,28
2019-03-08T14:04:24.352Z,27
2019-03-08T14:05:33.917Z,27.1
2019-03-08T14:06:43.712Z,26.2
2019-03-08T14:07:53.089Z,27.4
2019-03-08T14:09:02.714Z,26.6
2019-03-08T14:10:12.250Z,25.5
2019-03-08T14:11:21.797Z,28.5
2019-03-08T14:12:31.420Z,27.6
2019-03-08T14:13:40.881Z,28
2019-03-08T14:14:50.414Z,28.9
2019-03-08T14:15:59.906Z,29.6
2019-03-08T14:17:09.438Z,28.9
2019-03-08T14:18:18.924Z,30.3
2019-03-08T14:19:28.377Z,30.1
2019-03-08T14:20:37.871Z,30
2019-03-08T14:21:47.473Z,29
2019-03-08T14:22:56.831Z,28.6
2019-03-08T14:24:06.359Z,26.3
2019-03-08T14:25:15.863Z,27.2
2019-03-08T14:26:25.337Z,25.7
2019-03-08T14:27:34.855Z,24.4
2019-03-08T14:28:44.331Z,24.6
2019-03-08T14:29:59.074Z,24.7
2019-03-08T14:31:03.496Z,24.4
2019-03-08T14:32:12.888Z,25.4
2019-03-08T14:33:22.415Z,24.3
2019-03-08T14:34:33.052Z,24.6
2019-03-08T14:35:42.611Z,23.2
2019-03-08T14:36:52.175Z,22.3
2019-03-08T14:38:01.675Z,22.2
2019-03-08T14:39:11.171Z,21.6
2019-03-08T14:40:22.106Z,21.2
2019-03-08T14:41:31.873Z,20
2019-03-08T14:42:41.579Z,19.1
2019-03-08T14:43:53.840Z,18.3
2019-03-08T14:44:58.779Z,18.5
2019-03-08T14:46:08.316Z,19.8
2019-03-08T14:47:17.885Z,19.3
2019-03-08T14:48:27.342Z,20.7
2019-03-08T14:49:37.197Z,21.5
2019-03-08T14:50:46.771Z,22.8
2019-03-08T14:51:56.117Z,22.3
2019-03-08T14:53:05.631Z,23.2
2019-03-08T14:54:14.970Z,23.1
2019-03-08T14:55:24.474Z,22.7
2019-03-08T14:56:37.432Z,22.4
2019-03-08T14:57:43.519Z,24.4
2019-03-08T14:58:52.988Z,23.8
2019-03-08T15:00:02.555Z,24.2
2019-03-08T15:01:12.046Z,24.4
2019-03-08T15:02:21.574Z,24.2
2019-03-08T15:03:30.980Z,23.5
2019-03-08T15:04:40.561Z,23.7
2019-03-08T15:05:54.764Z,24.4
2019-03-08T15:07:04.319Z,22.7
2019-03-08T15:08:08.947Z,23.8
2019-03-08T15:09:18.482Z,24.2
2019-03-08T15:10:27.963Z,24.4
2019-03-08T15:11:37.429Z,24.5
2019-03-08T15:12:49.582Z,24.4
2019-03-08T15:13:59.070Z,24.4
2019-03-08T15:15:11.437Z,26.2
2019-03-08T15:16:15.421Z,28.2
2019-03-08T15:17:24.878Z,28.7
2019-03-08T15:18:34.292Z,31.7
2019-03-08T15:19:43.771Z,33.1
2019-03-08T15:20:58.447Z,32
2019-03-08T15:22:02.980Z,31.6
2019-03-08T15:23:17.016Z,31.6
2019-03-08T15:24:21.567Z,34.1
2019-03-08T15:25:31.605Z,31
2019-03-08T15:26:40.457Z,30.2
2019-03-08T15:27:50.120Z,30.9
2019-03-08T15:28:59.406Z,33
2019-03-08T15:30:08.808Z,32.1
2019-03-08T15:31:18.469Z,32.7
2019-03-08T15:32:27.666Z,32.3
2019-03-08T15:33:37.140Z,32.4
2019-03-08T15:34:46.683Z,32.3
2019-03-08T15:35:55.970Z,30.9
2019-03-08T15:37:05.411Z,32.6
2019-03-08T15:38:14.819Z,33.9
2019-03-08T15:39:24.265Z,33.8